Terminal Aerodrome Forecast
Issued by NWS

Home | Current Version | Previous Version | Text Only | Print | Product List | Glossary On
Versions: 1 2 3 4 5 6 7 8 9 10 11 12 13 14 15 16 17 18 19 20 21 22 23 24 25 26 27 28
609
FTAK31 PANC 270523
TAFAAQ
TAF
PAAQ 270523Z 2706/2806 VRB04KT P6SM VCSH SCT045 BKN080
      TEMPO 2706/2709 -SHRA BKN020
     FM272100 14012G20KT P6SM VCSH SCT045 BKN060
     FM280400 VRB05KT 6SM -RASN BKN030=

USA.gov is the U.S. government's official web portal to all federal, state and local government web resources and services.